sensor_id;sensor_type;location;lat;lon;timestamp;pressure;altitude;pressure_sealevel;temperature;humidity
54308;BME280;40208;39.778;2.710;2023-04-03T00:02:13;101591.19;;;14.36;100.00
54308;BME280;40208;39.778;2.710;2023-04-03T00:04:57;101591.13;;;14.38;100.00
54308;BME280;40208;39.778;2.710;2023-04-03T00:07:42;101576.38;;;14.29;100.00
54308;BME280;40208;39.778;2.710;2023-04-03T00:10:26;101568.16;;;14.34;100.00
54308;BME280;40208;39.778;2.710;2023-04-03T00:13:11;101566.00;;;14.23;100.00
54308;BME280;40208;39.778;2.710;2023-04-03T00:15:55;101568.66;;;14.23;100.00
54308;BME280;40208;39.778;2.710;2023-04-03T00:18:40;101562.41;;;14.24;100.00
54308;BME280;40208;39.778;2.710;2023-04-03T00:21:24;101563.06;;;14.10;100.00
54308;BME280;40208;39.778;2.710;2023-04-03T00:24:10;101566.59;;;14.11;100.00
54308;BME280;40208;39.778;2.710;2023-04-03T00:26:54;101570.41;;;14.24;100.00
54308;BME280;40208;39.778;2.710;2023-04-03T00:29:39;101565.06;;;14.24;100.00
54308;BME280;40208;39.778;2.710;2023-04-03T00:32:24;101565.50;;;14.15;100.00
54308;BME280;40208;39.778;2.710;2023-04-03T00:35:09;101565.34;;;14.18;100.00
54308;BME280;40208;39.778;2.710;2023-04-03T00:37:55;101565.78;;;14.09;100.00
54308;BME280;40208;39.778;2.710;2023-04-03T00:40:42;101558.16;;;14.01;100.00
54308;BME280;40208;39.778;2.710;2023-04-03T00:43:26;101558.50;;;13.93;100.00
54308;BME280;40208;39.778;2.710;2023-04-03T00:46:11;101550.13;;;13.82;100.00
54308;BME280;40208;39.778;2.710;2023-04-03T00:48:56;101551.94;;;13.82;100.00
54308;BME280;40208;39.778;2.710;2023-04-03T00:51:40;101544.84;;;13.62;100.00
54308;BME280;40208;39.778;2.710;2023-04-03T00:54:25;101548.63;;;13.37;100.00
54308;BME280;40208;39.778;2.710;2023-04-03T00:57:10;101542.63;;;13.32;100.00
54308;BME280;40208;39.778;2.710;2023-04-03T00:59:57;101540.06;;;13.08;100.00
54308;BME280;40208;39.778;2.710;2023-04-03T01:02:43;101540.94;;;13.09;100.00
54308;BME280;40208;39.778;2.710;2023-04-03T01:05:28;101534.00;;;13.25;100.00
54308;BME280;40208;39.778;2.710;2023-04-03T01:08:13;101537.81;;;13.20;100.00
54308;BME280;40208;39.778;2.710;2023-04-03T01:10:58;101531.09;;;13.11;100.00
54308;BME280;40208;39.778;2.710;2023-04-03T01:13:43;101528.41;;;12.90;100.00
54308;BME280;40208;39.778;2.710;2023-04-03T01:16:27;101523.78;;;12.73;100.00
54308;BME280;40208;39.778;2.710;2023-04-03T01:19:14;101518.41;;;12.75;100.00
54308;BME280;40208;39.778;2.710;2023-04-03T01:22:18;101518.47;;;12.53;100.00
54308;BME280;40208;39.778;2.710;2023-04-03T01:25:03;101511.28;;;12.33;100.00
54308;BME280;40208;39.778;2.710;2023-04-03T01:27:48;101515.78;;;12.53;100.00
54308;BME280;40208;39.778;2.710;2023-04-03T01:30:34;101508.38;;;12.60;100.00
54308;BME280;40208;39.778;2.710;2023-04-03T01:33:20;101507.00;;;12.71;100.00
54308;BME280;40208;39.778;2.710;2023-04-03T01:36:09;101502.22;;;12.59;100.00
54308;BME280;40208;39.778;2.710;2023-04-03T01:38:54;101503.97;;;12.81;100.00
54308;BME280;40208;39.778;2.710;2023-04-03T01:41:39;101503.38;;;12.94;100.00
54308;BME280;40208;39.778;2.710;2023-04-03T01:44:23;101506.63;;;12.81;100.00
54308;BME280;40208;39.778;2.710;2023-04-03T01:47:08;101504.72;;;12.62;100.00
54308;BME280;40208;39.778;2.710;2023-04-03T01:49:52;101499.13;;;12.48;100.00
54308;BME280;40208;39.778;2.710;2023-04-03T01:52:36;101504.22;;;12.32;100.00
54308;BME280;40208;39.778;2.710;2023-04-03T01:55:21;101501.88;;;12.24;100.00
54308;BME280;40208;39.778;2.710;2023-04-03T01:58:05;101499.50;;;12.17;100.00
54308;BME280;40208;39.778;2.710;2023-04-03T02:00:50;101496.94;;;12.15;100.00
54308;BME280;40208;39.778;2.710;2023-04-03T02:03:35;101487.78;;;12.22;100.00
54308;BME280;40208;39.778;2.710;2023-04-03T02:06:19;101484.53;;;12.14;100.00
54308;BME280;40208;39.778;2.710;2023-04-03T02:09:04;101480.22;;;12.12;100.00
54308;BME280;40208;39.778;2.710;2023-04-03T02:11:48;101478.84;;;12.01;100.00
54308;BME280;40208;39.778;2.710;2023-04-03T02:14:33;101470.94;;;12.00;100.00
54308;BME280;40208;39.778;2.710;2023-04-03T02:17:17;101471.50;;;12.08;100.00
54308;BME280;40208;39.778;2.710;2023-04-03T02:20:02;101465.50;;;12.25;100.00
54308;BME280;40208;39.778;2.710;2023-04-03T02:22:47;101464.06;;;12.16;100.00
54308;BME280;40208;39.778;2.710;2023-04-03T02:25:32;101473.91;;;12.14;100.00
54308;BME280;40208;39.778;2.710;2023-04-03T02:28:17;101469.69;;;12.08;100.00
54308;BME280;40208;39.778;2.710;2023-04-03T02:31:02;101469.56;;;11.90;100.00
54308;BME280;40208;39.778;2.710;2023-04-03T02:33:46;101463.44;;;11.87;100.00
54308;BME280;40208;39.778;2.710;2023-04-03T02:36:31;101459.13;;;11.83;100.00
54308;BME280;40208;39.778;2.710;2023-04-03T02:39:16;101464.56;;;11.80;100.00
54308;BME280;40208;39.778;2.710;2023-04-03T02:42:00;101460.19;;;11.79;100.00
54308;BME280;40208;39.778;2.710;2023-04-03T02:44:45;101449.09;;;11.68;100.00
54308;BME280;40208;39.778;2.710;2023-04-03T02:47:30;101450.53;;;11.77;100.00
54308;BME280;40208;39.778;2.710;2023-04-03T02:50:15;101443.66;;;11.71;100.00
54308;BME280;40208;39.778;2.710;2023-04-03T02:52:59;101441.81;;;11.73;100.00
54308;BME280;40208;39.778;2.710;2023-04-03T02:55:44;101431.22;;;11.95;100.00
54308;BME280;40208;39.778;2.710;2023-04-03T02:58:29;101434.94;;;12.13;100.00
54308;BME280;40208;39.778;2.710;2023-04-03T03:01:14;101434.28;;;12.28;100.00
54308;BME280;40208;39.778;2.710;2023-04-03T03:03:59;101434.03;;;12.35;100.00
54308;BME280;40208;39.778;2.710;2023-04-03T03:06:44;101441.69;;;12.42;100.00
54308;BME280;40208;39.778;2.710;2023-04-03T03:09:29;101438.81;;;12.47;100.00
54308;BME280;40208;39.778;2.710;2023-04-03T03:12:13;101440.34;;;12.52;100.00
54308;BME280;40208;39.778;2.710;2023-04-03T03:14:58;101445.75;;;12.51;100.00
54308;BME280;40208;39.778;2.710;2023-04-03T03:17:43;101440.44;;;12.51;100.00
54308;BME280;40208;39.778;2.710;2023-04-03T03:20:28;101435.13;;;12.51;100.00
54308;BME280;40208;39.778;2.710;2023-04-03T03:23:12;101433.69;;;12.42;100.00
54308;BME280;40208;39.778;2.710;2023-04-03T03:25:57;101425.25;;;12.33;100.00
54308;BME280;40208;39.778;2.710;2023-04-03T03:28:42;101421.72;;;12.32;100.00
54308;BME280;40208;39.778;2.710;2023-04-03T03:31:27;101418.44;;;12.25;100.00
54308;BME280;40208;39.778;2.710;2023-04-03T03:34:11;101428.63;;;12.36;100.00
54308;BME280;40208;39.778;2.710;2023-04-03T03:36:56;101440.50;;;12.49;100.00
54308;BME280;40208;39.778;2.710;2023-04-03T03:39:41;101441.00;;;12.37;100.00
54308;BME280;40208;39.778;2.710;2023-04-03T03:42:25;101448.81;;;12.42;100.00
54308;BME280;40208;39.778;2.710;2023-04-03T03:45:10;101444.81;;;12.52;100.00
54308;BME280;40208;39.778;2.710;2023-04-03T03:47:54;101442.75;;;12.59;100.00
54308;BME280;40208;39.778;2.710;2023-04-03T03:50:39;101439.06;;;12.63;100.00
54308;BME280;40208;39.778;2.710;2023-04-03T03:53:24;101440.97;;;12.59;100.00
54308;BME280;40208;39.778;2.710;2023-04-03T03:56:14;101443.44;;;12.43;100.00
54308;BME280;40208;39.778;2.710;2023-04-03T03:58:59;101437.31;;;12.41;100.00
54308;BME280;40208;39.778;2.710;2023-04-03T04:01:44;101431.41;;;12.33;100.00
54308;BME280;40208;39.778;2.710;2023-04-03T04:04:28;101433.56;;;12.25;100.00
54308;BME280;40208;39.778;2.710;2023-04-03T04:07:13;101430.47;;;12.14;100.00
54308;BME280;40208;39.778;2.710;2023-04-03T04:09:57;101423.84;;;12.02;100.00
54308;BME280;40208;39.778;2.710;2023-04-03T04:12:42;101430.13;;;12.01;100.00
54308;BME280;40208;39.778;2.710;2023-04-03T04:15:26;101428.72;;;11.91;100.00
54308;BME280;40208;39.778;2.710;2023-04-03T04:18:11;101430.69;;;12.07;100.00
54308;BME280;40208;39.778;2.710;2023-04-03T04:20:56;101429.50;;;11.94;100.00
54308;BME280;40208;39.778;2.710;2023-04-03T04:23:40;101429.16;;;11.80;100.00
54308;BME280;40208;39.778;2.710;2023-04-03T04:26:25;101423.66;;;11.84;100.00
54308;BME280;40208;39.778;2.710;2023-04-03T04:29:10;101423.34;;;11.92;100.00
54308;BME280;40208;39.778;2.710;2023-04-03T04:31:54;101427.13;;;11.86;100.00
54308;BME280;40208;39.778;2.710;2023-04-03T04:34:39;101421.91;;;11.83;100.00
54308;BME280;40208;39.778;2.710;2023-04-03T04:37:23;101415.34;;;11.70;100.00
54308;BME280;40208;39.778;2.710;2023-04-03T04:40:08;101406.88;;;11.60;100.00
54308;BME280;40208;39.778;2.710;2023-04-03T04:42:53;101416.34;;;11.67;100.00
54308;BME280;40208;39.778;2.710;2023-04-03T04:45:37;101417.06;;;11.71;100.00
54308;BME280;40208;39.778;2.710;2023-04-03T04:48:22;101419.53;;;11.54;100.00
54308;BME280;40208;39.778;2.710;2023-04-03T04:51:07;101430.69;;;11.63;100.00
54308;BME280;40208;39.778;2.710;2023-04-03T04:53:51;101427.94;;;11.65;100.00
54308;BME280;40208;39.778;2.710;2023-04-03T04:56:36;101426.00;;;11.46;100.00
54308;BME280;40208;39.778;2.710;2023-04-03T04:59:20;101425.22;;;11.44;100.00
54308;BME280;40208;39.778;2.710;2023-04-03T05:02:05;101310.09;;;10.75;100.00
54308;BME280;40208;39.778;2.710;2023-04-03T05:04:49;101424.88;;;11.30;100.00
54308;BME280;40208;39.778;2.710;2023-04-03T05:07:35;101418.69;;;11.30;100.00
54308;BME280;40208;39.778;2.710;2023-04-03T05:10:20;101424.94;;;11.51;100.00
54308;BME280;40208;39.778;2.710;2023-04-03T05:13:04;101421.38;;;11.52;100.00
54308;BME280;40208;39.778;2.710;2023-04-03T05:15:49;101423.88;;;11.33;100.00
54308;BME280;40208;39.778;2.710;2023-04-03T05:18:33;101433.41;;;11.15;100.00
54308;BME280;40208;39.778;2.710;2023-04-03T05:21:18;101427.75;;;11.24;100.00
54308;BME280;40208;39.778;2.710;2023-04-03T05:24:02;101436.22;;;11.34;100.00
54308;BME280;40208;39.778;2.710;2023-04-03T05:26:47;101436.41;;;11.29;100.00
54308;BME280;40208;39.778;2.710;2023-04-03T05:29:32;101447.53;;;11.39;100.00
54308;BME280;40208;39.778;2.710;2023-04-03T05:32:16;101452.69;;;11.43;100.00
54308;BME280;40208;39.778;2.710;2023-04-03T05:35:01;101464.09;;;11.23;100.00
54308;BME280;40208;39.778;2.710;2023-04-03T05:37:46;101461.22;;;11.04;100.00
54308;BME280;40208;39.778;2.710;2023-04-03T05:40:31;101468.88;;;11.14;100.00
54308;BME280;40208;39.778;2.710;2023-04-03T05:43:16;101477.88;;;11.10;100.00
54308;BME280;40208;39.778;2.710;2023-04-03T05:46:00;101476.59;;;10.96;100.00
54308;BME280;40208;39.778;2.710;2023-04-03T05:48:45;101479.50;;;10.89;100.00
54308;BME280;40208;39.778;2.710;2023-04-03T05:51:30;101479.41;;;10.92;100.00
54308;BME280;40208;39.778;2.710;2023-04-03T05:54:20;101481.13;;;10.93;100.00
54308;BME280;40208;39.778;2.710;2023-04-03T05:57:07;101487.31;;;10.93;100.00
54308;BME280;40208;39.778;2.710;2023-04-03T05:59:52;101486.72;;;10.85;100.00
54308;BME280;40208;39.778;2.710;2023-04-03T06:02:36;101493.91;;;10.81;100.00
54308;BME280;40208;39.778;2.710;2023-04-03T06:05:21;101487.69;;;10.82;100.00
54308;BME280;40208;39.778;2.710;2023-04-03T06:08:06;101497.97;;;10.67;100.00
54308;BME280;40208;39.778;2.710;2023-04-03T06:10:51;101507.09;;;10.85;100.00
54308;BME280;40208;39.778;2.710;2023-04-03T06:13:35;101505.41;;;10.82;100.00
54308;BME280;40208;39.778;2.710;2023-04-03T06:16:20;101503.22;;;10.68;100.00
54308;BME280;40208;39.778;2.710;2023-04-03T06:19:05;101494.34;;;10.69;100.00
54308;BME280;40208;39.778;2.710;2023-04-03T06:21:51;101494.66;;;10.60;100.00
54308;BME280;40208;39.778;2.710;2023-04-03T06:24:36;101508.19;;;10.52;100.00
54308;BME280;40208;39.778;2.710;2023-04-03T06:27:21;101501.91;;;10.55;100.00
54308;BME280;40208;39.778;2.710;2023-04-03T06:30:06;101514.41;;;10.51;100.00
54308;BME280;40208;39.778;2.710;2023-04-03T06:32:51;101506.53;;;10.48;100.00
54308;BME280;40208;39.778;2.710;2023-04-03T06:35:36;101510.22;;;10.44;100.00
54308;BME280;40208;39.778;2.710;2023-04-03T06:38:22;101516.47;;;10.42;100.00
54308;BME280;40208;39.778;2.710;2023-04-03T06:41:07;101530.56;;;10.44;100.00
54308;BME280;40208;39.778;2.710;2023-04-03T06:43:52;101527.16;;;10.40;100.00
54308;BME280;40208;39.778;2.710;2023-04-03T06:46:37;101528.66;;;10.49;100.00
54308;BME280;40208;39.778;2.710;2023-04-03T06:49:22;101523.81;;;10.35;100.00
54308;BME280;40208;39.778;2.710;2023-04-03T06:52:06;101524.97;;;10.53;100.00
54308;BME280;40208;39.778;2.710;2023-04-03T06:54:51;101533.78;;;10.53;100.00
54308;BME280;40208;39.778;2.710;2023-04-03T06:57:41;101534.69;;;10.54;100.00
54308;BME280;40208;39.778;2.710;2023-04-03T07:00:26;101539.84;;;10.58;100.00
54308;BME280;40208;39.778;2.710;2023-04-03T07:03:10;101536.97;;;10.65;100.00
54308;BME280;40208;39.778;2.710;2023-04-03T07:05:55;101539.31;;;10.74;100.00
54308;BME280;40208;39.778;2.710;2023-04-03T07:08:39;101540.84;;;10.81;100.00
54308;BME280;40208;39.778;2.710;2023-04-03T07:11:24;101534.50;;;10.85;100.00
54308;BME280;40208;39.778;2.710;2023-04-03T07:14:09;101536.84;;;10.94;100.00
54308;BME280;40208;39.778;2.710;2023-04-03T07:16:53;101537.13;;;11.12;100.00
54308;BME280;40208;39.778;2.710;2023-04-03T07:19:38;101535.78;;;11.25;100.00
54308;BME280;40208;39.778;2.710;2023-04-03T07:22:22;101528.25;;;11.36;100.00
54308;BME280;40208;39.778;2.710;2023-04-03T07:25:07;101519.94;;;11.45;100.00
54308;BME280;40208;39.778;2.710;2023-04-03T07:27:52;101519.44;;;11.59;100.00
54308;BME280;40208;39.778;2.710;2023-04-03T07:30:45;101529.63;;;11.72;100.00
54308;BME280;40208;39.778;2.710;2023-04-03T07:33:30;101514.00;;;11.86;100.00
54308;BME280;40208;39.778;2.710;2023-04-03T07:36:16;101517.91;;;12.01;100.00
54308;BME280;40208;39.778;2.710;2023-04-03T07:39:01;101513.72;;;12.17;100.00
54308;BME280;40208;39.778;2.710;2023-04-03T07:41:46;101513.25;;;12.28;100.00
54308;BME280;40208;39.778;2.710;2023-04-03T07:44:31;101512.84;;;12.39;100.00
54308;BME280;40208;39.778;2.710;2023-04-03T07:47:16;101515.59;;;12.58;100.00
54308;BME280;40208;39.778;2.710;2023-04-03T07:50:01;101513.47;;;12.66;100.00
54308;BME280;40208;39.778;2.710;2023-04-03T07:52:46;101505.72;;;12.82;100.00
54308;BME280;40208;39.778;2.710;2023-04-03T07:55:31;101515.03;;;12.92;100.00
54308;BME280;40208;39.778;2.710;2023-04-03T07:58:16;101509.16;;;13.04;100.00
54308;BME280;40208;39.778;2.710;2023-04-03T08:01:01;101498.94;;;13.14;100.00
54308;BME280;40208;39.778;2.710;2023-04-03T08:03:46;101500.22;;;13.26;100.00
54308;BME280;40208;39.778;2.710;2023-04-03T08:06:32;101496.47;;;13.50;100.00
54308;BME280;40208;39.778;2.710;2023-04-03T08:09:18;101504.81;;;13.62;100.00
54308;BME280;40208;39.778;2.710;2023-04-03T08:12:03;101496.56;;;13.68;100.00
54308;BME280;40208;39.778;2.710;2023-04-03T08:14:48;101498.06;;;13.73;100.00
54308;BME280;40208;39.778;2.710;2023-04-03T08:17:32;101494.16;;;13.81;100.00
54308;BME280;40208;39.778;2.710;2023-04-03T08:20:17;101500.94;;;13.88;100.00
54308;BME280;40208;39.778;2.710;2023-04-03T08:23:02;101487.09;;;13.98;100.00
54308;BME280;40208;39.778;2.710;2023-04-03T08:25:47;101495.47;;;14.10;100.00
54308;BME280;40208;39.778;2.710;2023-04-03T08:28:31;101498.38;;;14.23;100.00
54308;BME280;40208;39.778;2.710;2023-04-03T08:31:17;101492.59;;;14.32;100.00
54308;BME280;40208;39.778;2.710;2023-04-03T08:34:02;101496.31;;;14.47;100.00
54308;BME280;40208;39.778;2.710;2023-04-03T08:36:47;101504.03;;;14.53;100.00
54308;BME280;40208;39.778;2.710;2023-04-03T08:39:32;101503.59;;;14.62;100.00
54308;BME280;40208;39.778;2.710;2023-04-03T08:42:25;101505.00;;;14.69;100.00
54308;BME280;40208;39.778;2.710;2023-04-03T08:45:19;101499.03;;;14.81;100.00
54308;BME280;40208;39.778;2.710;2023-04-03T08:50:58;101495.66;;;14.95;100.00
54308;BME280;40208;39.778;2.710;2023-04-03T08:53:51;101504.34;;;14.99;100.00
54308;BME280;40208;39.778;2.710;2023-04-03T08:56:40;101500.53;;;15.04;100.00
54308;BME280;40208;39.778;2.710;2023-04-03T08:59:29;101501.75;;;15.15;100.00
54308;BME280;40208;39.778;2.710;2023-04-03T09:02:34;101502.19;;;15.23;100.00
54308;BME280;40208;39.778;2.710;2023-04-03T09:08:28;101502.50;;;15.34;100.00
54308;BME280;40208;39.778;2.710;2023-04-03T09:14:38;101501.75;;;15.48;100.00
54308;BME280;40208;39.778;2.710;2023-04-03T09:17:28;101498.59;;;15.57;100.00
54308;BME280;40208;39.778;2.710;2023-04-03T09:20:31;101496.34;;;15.65;100.00
54308;BME280;40208;39.778;2.710;2023-04-03T09:23:24;101490.69;;;15.72;100.00
54308;BME280;40208;39.778;2.710;2023-04-03T09:26:13;101493.78;;;15.80;100.00
54308;BME280;40208;39.778;2.710;2023-04-03T09:28:59;101491.66;;;15.86;100.00
54308;BME280;40208;39.778;2.710;2023-04-03T09:31:45;101492.78;;;15.98;100.00
54308;BME280;40208;39.778;2.710;2023-04-03T09:34:31;101484.47;;;16.03;100.00
54308;BME280;40208;39.778;2.710;2023-04-03T09:46:18;101481.69;;;16.20;100.00
54308;BME280;40208;39.778;2.710;2023-04-03T09:49:03;101488.59;;;16.24;100.00
54308;BME280;40208;39.778;2.710;2023-04-03T09:51:49;101493.44;;;16.33;100.00
54308;BME280;40208;39.778;2.710;2023-04-03T09:54:37;101483.31;;;16.39;100.00
54308;BME280;40208;39.778;2.710;2023-04-03T09:57:22;101488.66;;;16.39;100.00
54308;BME280;40208;39.778;2.710;2023-04-03T10:00:23;101480.78;;;16.51;100.00
54308;BME280;40208;39.778;2.710;2023-04-03T10:06:23;101490.34;;;16.56;100.00
54308;BME280;40208;39.778;2.710;2023-04-03T10:17:50;101478.34;;;16.77;100.00
54308;BME280;40208;39.778;2.710;2023-04-03T10:20:44;101471.13;;;16.79;100.00
54308;BME280;40208;39.778;2.710;2023-04-03T10:23:51;101458.22;;;16.86;100.00
54308;BME280;40208;39.778;2.710;2023-04-03T10:26:42;101467.69;;;16.91;100.00
54308;BME280;40208;39.778;2.710;2023-04-03T10:35:24;101455.47;;;17.16;100.00
54308;BME280;40208;39.778;2.710;2023-04-03T10:41:03;101452.69;;;17.17;100.00
54308;BME280;40208;39.778;2.710;2023-04-03T10:46:38;101446.66;;;17.28;100.00
54308;BME280;40208;39.778;2.710;2023-04-03T10:52:19;101441.56;;;17.38;100.00
54308;BME280;40208;39.778;2.710;2023-04-03T10:57:58;101432.66;;;17.37;100.00
54308;BME280;40208;39.778;2.710;2023-04-03T11:00:44;101434.22;;;17.42;100.00
54308;BME280;40208;39.778;2.710;2023-04-03T11:03:32;101424.13;;;17.45;100.00
54308;BME280;40208;39.778;2.710;2023-04-03T11:06:19;101420.28;;;17.49;100.00
54308;BME280;40208;39.778;2.710;2023-04-03T11:09:11;101417.50;;;17.51;100.00
54308;BME280;40208;39.778;2.710;2023-04-03T11:12:09;101417.97;;;17.57;100.00
54308;BME280;40208;39.778;2.710;2023-04-03T11:14:56;101418.44;;;17.64;100.00
54308;BME280;40208;39.778;2.710;2023-04-03T11:21:01;101409.41;;;17.65;100.00
54308;BME280;40208;39.778;2.710;2023-04-03T11:23:48;101412.78;;;17.69;100.00
54308;BME280;40208;39.778;2.710;2023-04-03T11:26:35;101411.69;;;17.71;100.00
54308;BME280;40208;39.778;2.710;2023-04-03T11:29:25;101399.81;;;17.75;100.00
54308;BME280;40208;39.778;2.710;2023-04-03T11:35:04;101407.31;;;17.70;100.00
54308;BME280;40208;39.778;2.710;2023-04-03T11:37:50;101407.31;;;17.70;100.00
54308;BME280;40208;39.778;2.710;2023-04-03T11:40:36;101397.13;;;17.75;100.00
54308;BME280;40208;39.778;2.710;2023-04-03T11:43:26;101404.88;;;17.80;100.00
54308;BME280;40208;39.778;2.710;2023-04-03T11:46:11;101399.34;;;17.83;100.00
54308;BME280;40208;39.778;2.710;2023-04-03T11:48:55;101406.22;;;17.87;100.00
54308;BME280;40208;39.778;2.710;2023-04-03T11:51:40;101395.19;;;17.92;100.00
54308;BME280;40208;39.778;2.710;2023-04-03T11:54:44;101398.19;;;17.87;100.00
54308;BME280;40208;39.778;2.710;2023-04-03T11:57:43;101388.75;;;17.94;100.00
54308;BME280;40208;39.778;2.710;2023-04-03T12:09:23;101361.66;;;17.85;100.00
54308;BME280;40208;39.778;2.710;2023-04-03T12:15:16;101349.16;;;17.84;100.00
54308;BME280;40208;39.778;2.710;2023-04-03T12:21:06;101336.72;;;17.83;100.00
54308;BME280;40208;39.778;2.710;2023-04-03T12:29:37;101333.81;;;17.86;100.00
54308;BME280;40208;39.778;2.710;2023-04-03T12:35:37;101327.38;;;17.88;100.00
54308;BME280;40208;39.778;2.710;2023-04-03T12:41:23;101307.75;;;18.00;100.00
54308;BME280;40208;39.778;2.710;2023-04-03T12:47:02;101311.94;;;17.92;100.00
54308;BME280;40208;39.778;2.710;2023-04-03T12:49:52;101313.00;;;17.89;100.00
54308;BME280;40208;39.778;2.710;2023-04-03T12:52:44;101313.41;;;17.83;100.00
54308;BME280;40208;39.778;2.710;2023-04-03T12:55:29;101315.25;;;17.83;100.00
54308;BME280;40208;39.778;2.710;2023-04-03T12:58:15;101314.16;;;17.85;100.00
54308;BME280;40208;39.778;2.710;2023-04-03T13:01:02;101307.94;;;17.85;100.00
54308;BME280;40208;39.778;2.710;2023-04-03T13:03:48;101316.94;;;17.84;100.00
54308;BME280;40208;39.778;2.710;2023-04-03T13:06:37;101299.22;;;17.81;100.00
54308;BME280;40208;39.778;2.710;2023-04-03T13:09:26;101300.53;;;17.88;100.00
54308;BME280;40208;39.778;2.710;2023-04-03T13:12:13;101297.53;;;17.93;100.00
54308;BME280;40208;39.778;2.710;2023-04-03T13:14:59;101293.78;;;17.95;100.00
54308;BME280;40208;39.778;2.710;2023-04-03T13:17:45;101290.78;;;18.00;100.00
54308;BME280;40208;39.778;2.710;2023-04-03T13:20:30;101292.50;;;18.01;100.00
54308;BME280;40208;39.778;2.710;2023-04-03T13:23:17;101278.56;;;18.09;100.00
54308;BME280;40208;39.778;2.710;2023-04-03T13:26:05;101275.00;;;18.08;100.00
54308;BME280;40208;39.778;2.710;2023-04-03T13:28:50;101265.88;;;18.11;100.00
54308;BME280;40208;39.778;2.710;2023-04-03T13:31:36;101266.06;;;18.08;100.00
54308;BME280;40208;39.778;2.710;2023-04-03T13:34:22;101276.41;;;18.01;100.00
54308;BME280;40208;39.778;2.710;2023-04-03T13:37:11;101265.00;;;18.10;99.39
54308;BME280;40208;39.778;2.710;2023-04-03T13:40:09;101257.50;;;18.15;100.00
54308;BME280;40208;39.778;2.710;2023-04-03T13:43:05;101257.06;;;18.09;98.37
54308;BME280;40208;39.778;2.710;2023-04-03T13:46:00;101259.63;;;17.97;99.24
54308;BME280;40208;39.778;2.710;2023-04-03T13:48:45;101247.50;;;17.92;99.02
54308;BME280;40208;39.778;2.710;2023-04-03T13:51:30;101254.78;;;17.90;94.90
54308;BME280;40208;39.778;2.710;2023-04-03T13:54:32;101248.44;;;17.91;95.36
54308;BME280;40208;39.778;2.710;2023-04-03T13:57:17;101255.72;;;17.89;96.10
54308;BME280;40208;39.778;2.710;2023-04-03T14:00:19;101252.09;;;17.90;97.35
54308;BME280;40208;39.778;2.710;2023-04-03T14:03:16;101245.03;;;18.01;100.00
54308;BME280;40208;39.778;2.710;2023-04-03T14:06:06;101249.72;;;17.98;100.00
54308;BME280;40208;39.778;2.710;2023-04-03T14:08:51;101250.50;;;18.00;100.00
54308;BME280;40208;39.778;2.710;2023-04-03T14:11:36;101244.16;;;18.01;100.00
54308;BME280;40208;39.778;2.710;2023-04-03T14:14:23;101243.41;;;17.99;100.00
54308;BME280;40208;39.778;2.710;2023-04-03T14:17:19;101245.66;;;17.92;100.00
54308;BME280;40208;39.778;2.710;2023-04-03T14:20:05;101252.72;;;17.80;100.00
54308;BME280;40208;39.778;2.710;2023-04-03T14:22:51;101242.34;;;17.74;100.00
54308;BME280;40208;39.778;2.710;2023-04-03T14:25:36;101239.13;;;17.69;100.00
54308;BME280;40208;39.778;2.710;2023-04-03T14:28:22;101238.50;;;17.78;100.00
54308;BME280;40208;39.778;2.710;2023-04-03T14:31:14;101227.16;;;17.88;100.00
54308;BME280;40208;39.778;2.710;2023-04-03T14:33:59;101231.03;;;17.84;100.00
54308;BME280;40208;39.778;2.710;2023-04-03T14:36:44;101229.41;;;17.81;100.00
54308;BME280;40208;39.778;2.710;2023-04-03T14:39:29;101227.59;;;17.82;100.00
54308;BME280;40208;39.778;2.710;2023-04-03T14:42:18;101237.69;;;17.91;98.23
54308;BME280;40208;39.778;2.710;2023-04-03T14:45:04;101238.03;;;17.99;92.91
54308;BME280;40208;39.778;2.710;2023-04-03T14:47:53;101237.91;;;18.00;92.92
54308;BME280;40208;39.778;2.710;2023-04-03T14:50:38;101241.34;;;18.02;93.89
54308;BME280;40208;39.778;2.710;2023-04-03T14:53:28;101237.28;;;17.97;94.90
54308;BME280;40208;39.778;2.710;2023-04-03T14:56:19;101223.94;;;17.95;90.81
54308;BME280;40208;39.778;2.710;2023-04-03T14:59:08;101230.53;;;18.04;94.44
54308;BME280;40208;39.778;2.710;2023-04-03T15:01:54;101226.09;;;18.03;90.74
54308;BME280;40208;39.778;2.710;2023-04-03T15:04:38;101218.69;;;18.07;92.79
54308;BME280;40208;39.778;2.710;2023-04-03T15:07:23;101222.69;;;18.01;94.27
54308;BME280;40208;39.778;2.710;2023-04-03T15:12:59;101214.94;;;18.09;93.34
54308;BME280;40208;39.778;2.710;2023-04-03T15:15:44;101213.88;;;18.12;90.61
54308;BME280;40208;39.778;2.710;2023-04-03T15:18:30;101212.66;;;18.03;91.33
54308;BME280;40208;39.778;2.710;2023-04-03T15:21:15;101209.13;;;18.02;89.94
54308;BME280;40208;39.778;2.710;2023-04-03T15:24:00;101202.69;;;18.05;89.81
54308;BME280;40208;39.778;2.710;2023-04-03T15:26:45;101203.44;;;18.07;87.01
54308;BME280;40208;39.778;2.710;2023-04-03T15:29:30;101199.16;;;18.05;87.23
54308;BME280;40208;39.778;2.710;2023-04-03T15:32:15;101203.97;;;17.99;86.33
54308;BME280;40208;39.778;2.710;2023-04-03T15:35:00;101199.56;;;17.98;87.53
54308;BME280;40208;39.778;2.710;2023-04-03T15:37:45;101194.53;;;17.94;88.74
54308;BME280;40208;39.778;2.710;2023-04-03T15:40:30;101187.53;;;18.04;84.65
54308;BME280;40208;39.778;2.710;2023-04-03T15:43:14;101193.44;;;18.09;83.91
54308;BME280;40208;39.778;2.710;2023-04-03T15:45:59;101195.38;;;18.07;85.60